Time;durP1;ratioP1;P1;durP2;ratioP2;P2;SDS_P1;SDS_P2;PMS_P1;PMS_P2;Temp;Humidity;BMP_temperature;BMP_pressure;BME280_temperature;BME280_humidity;BME280_pressure;Samples;Min_cycle;Max_cycle;Signal;HPM_P1;HPM_P2
2021/09/11 00:01:15;;;;;;;9.93;7.50;;;17.10;97.40;;;;;;6251215;28;20486;-63
2021/09/11 00:04:18;;;;;;;9.00;8.30;;;17.00;97.50;;;;;;6250905;28;20471;-66
2021/09/11 00:07:22;;;;;;;9.03;8.40;;;17.00;97.60;;;;;;6250691;28;20471;-64
2021/09/11 00:10:25;;;;;;;9.70;8.90;;;17.00;97.70;;;;;;6227851;28;20476;-64
2021/09/11 00:13:28;;;;;;;8.57;7.97;;;17.00;97.80;;;;;;6226186;28;20499;-64
2021/09/11 00:16:33;;;;;;;8.90;8.30;;;16.90;97.80;;;;;;6225998;28;20486;-65
2021/09/11 00:19:36;;;;;;;9.07;8.37;;;16.90;97.90;;;;;;6226167;28;20603;-65
2021/09/11 00:22:40;;;;;;;9.23;8.37;;;16.90;97.90;;;;;;6225807;28;20847;-65
2021/09/11 00:25:43;;;;;;;8.37;7.67;;;16.90;97.90;;;;;;6225787;28;20487;-65
2021/09/11 00:28:46;;;;;;;9.33;8.50;;;16.90;97.90;;;;;;6226080;28;20502;-65
2021/09/11 00:31:51;;;;;;;8.83;8.03;;;16.90;98.00;;;;;;6225807;28;20480;-65
2021/09/11 00:34:56;;;;;;;9.23;8.43;;;16.80;98.00;;;;;;6225599;28;20529;-65
2021/09/11 00:37:59;;;;;;;9.93;8.40;;;16.80;98.10;;;;;;6225961;28;20483;-65
2021/09/11 00:41:02;;;;;;;9.83;9.03;;;16.80;98.20;;;;;;6225969;28;20479;-64
2021/09/11 00:44:05;;;;;;;9.10;8.20;;;16.80;98.20;;;;;;6225889;28;20968;-65
2021/09/11 00:47:10;;;;;;;8.83;8.03;;;16.80;98.30;;;;;;6229173;28;20487;-64
2021/09/11 00:50:14;;;;;;;8.87;8.17;;;16.80;98.40;;;;;;6249624;28;20479;-64
2021/09/11 00:53:19;;;;;;;9.80;8.90;;;16.70;98.30;;;;;;6245922;28;20494;-64
2021/09/11 00:56:22;;;;;;;9.87;8.97;;;16.70;98.30;;;;;;6249966;28;20471;-66
2021/09/11 00:59:26;;;;;;;10.07;9.27;;;16.70;98.40;;;;;;6249977;28;20443;-64
2021/09/11 01:02:30;;;;;;;9.80;8.90;;;16.60;98.40;;;;;;6250419;28;20494;-65
2021/09/11 01:05:34;;;;;;;10.10;9.10;;;16.60;98.50;;;;;;6250522;28;20443;-65
2021/09/11 01:08:40;;;;;;;11.37;10.37;;;16.60;98.70;;;;;;6242694;28;20460;-65
2021/09/11 01:11:43;;;;;;;9.53;8.73;;;16.50;98.70;;;;;;6225178;28;20476;-65
2021/09/11 01:14:46;;;;;;;10.10;9.20;;;16.50;98.80;;;;;;6225138;28;20478;-65
2021/09/11 01:17:51;;;;;;;10.03;9.13;;;16.50;98.80;;;;;;6223719;28;20470;-63
2021/09/11 01:20:55;;;;;;;9.13;8.23;;;16.50;99.10;;;;;;6210656;28;20804;-63
2021/09/11 01:24:00;;;;;;;9.37;8.67;;;16.60;99.20;;;;;;6225894;28;20467;-63
2021/09/11 01:27:03;;;;;;;9.60;8.90;;;16.50;99.20;;;;;;6224289;28;20479;-64
2021/09/11 01:30:08;;;;;;;9.70;8.70;;;16.50;99.30;;;;;;6228942;28;20470;-63
2021/09/11 01:33:12;;;;;;;9.47;8.57;;;16.50;99.20;;;;;;6229305;28;20791;-63
2021/09/11 01:36:15;;;;;;;10.27;9.37;;;16.50;99.20;;;;;;6229629;28;20852;-63
2021/09/11 01:39:19;;;;;;;10.87;9.83;;;16.50;99.20;;;;;;6229314;28;20815;-63
2021/09/11 01:42:24;;;;;;;11.17;9.93;;;16.50;99.30;;;;;;6229808;28;20471;-63
2021/09/11 01:45:27;;;;;;;10.10;9.30;;;16.50;99.30;;;;;;6229324;28;20481;-63
2021/09/11 01:48:30;;;;;;;10.17;9.17;;;16.50;99.30;;;;;;6229599;28;20483;-63
2021/09/11 01:51:34;;;;;;;9.30;8.60;;;16.50;99.30;;;;;;6229199;28;20479;-63
2021/09/11 01:54:39;;;;;;;9.30;8.60;;;16.60;99.30;;;;;;6228940;28;20990;-63
2021/09/11 01:57:43;;;;;;;9.20;8.40;;;16.50;99.20;;;;;;6229046;28;20476;-63
2021/09/11 02:00:47;;;;;;;10.63;8.80;;;16.50;99.20;;;;;;6229149;28;20479;-63
2021/09/11 02:03:50;;;;;;;9.00;8.30;;;16.50;99.30;;;;;;6229333;28;20476;-63
2021/09/11 02:06:57;;;;;;;8.83;8.07;;;16.50;99.30;;;;;;6229132;28;20476;-63
2021/09/11 02:10:02;;;;;;;9.10;8.30;;;16.50;99.20;;;;;;6228823;28;20471;-62
2021/09/11 02:13:05;;;;;;;9.57;8.63;;;16.30;99.30;;;;;;6228852;28;20471;-63
2021/09/11 02:16:08;;;;;;;9.80;8.90;;;16.30;99.40;;;;;;6229069;28;20975;-63
2021/09/11 02:19:11;;;;;;;8.57;7.87;;;16.30;99.30;;;;;;6228684;28;20805;-63
2021/09/11 02:22:15;;;;;;;9.63;8.67;;;16.30;99.40;;;;;;6228626;28;20479;-63
2021/09/11 02:25:19;;;;;;;10.00;9.20;;;16.20;99.30;;;;;;6228535;28;20487;-63
2021/09/11 02:28:23;;;;;;;8.97;8.17;;;16.30;99.40;;;;;;6228996;28;20472;-63
2021/09/11 02:31:26;;;;;;;11.03;10.13;;;16.20;99.50;;;;;;6228199;28;20472;-63
2021/09/11 02:34:29;;;;;;;11.30;10.40;;;16.20;99.30;;;;;;6228456;28;20468;-64
2021/09/11 02:37:33;;;;;;;10.80;9.70;;;16.10;99.30;;;;;;6228572;28;20486;-64
2021/09/11 02:40:37;;;;;;;11.27;10.17;;;16.10;99.40;;;;;;6228889;28;20491;-63
2021/09/11 02:43:41;;;;;;;9.93;9.13;;;16.10;99.50;;;;;;6227999;28;20476;-63
2021/09/11 02:46:44;;;;;;;10.07;9.27;;;16.10;99.60;;;;;;6227588;28;20542;-63
2021/09/11 02:49:47;;;;;;;9.90;9.00;;;16.10;99.60;;;;;;6228255;28;20468;-63
2021/09/11 02:52:50;;;;;;;9.60;8.80;;;16.10;99.60;;;;;;6227848;28;20825;-62
2021/09/11 02:55:55;;;;;;;11.20;10.33;;;16.00;99.60;;;;;;6227387;28;20487;-62
2021/09/11 02:58:59;;;;;;;10.17;9.27;;;15.90;99.80;;;;;;6227937;28;20468;-62
2021/09/11 03:02:02;;;;;;;9.03;8.40;;;15.90;99.90;;;;;;6223359;28;20506;-62
2021/09/11 03:05:06;;;;;;;10.70;8.70;;;15.90;99.90;;;;;;6227740;28;20484;-63
2021/09/11 03:08:09;;;;;;;9.90;9.20;;;15.80;99.90;;;;;;6227595;28;20483;-62
2021/09/11 03:11:14;;;;;;;12.00;8.57;;;15.80;99.90;;;;;;6227093;28;21110;-62
2021/09/11 03:14:17;;;;;;;8.83;8.13;;;15.90;99.90;;;;;;6227551;28;20487;-62
2021/09/11 03:17:20;;;;;;;9.90;9.00;;;15.90;99.90;;;;;;6227027;28;20487;-62
2021/09/11 03:20:23;;;;;;;10.20;8.57;;;15.80;99.90;;;;;;6227574;28;20794;-62
2021/09/11 03:23:27;;;;;;;9.40;8.50;;;15.80;99.90;;;;;;6226859;28;20502;-62
2021/09/11 03:26:31;;;;;;;7.97;7.37;;;15.80;99.90;;;;;;6227475;28;20447;-62
2021/09/11 03:29:34;;;;;;;8.67;7.97;;;15.80;99.90;;;;;;6227121;28;20456;-62
2021/09/11 03:32:37;;;;;;;9.30;7.77;;;15.80;99.90;;;;;;6227541;28;20471;-62
2021/09/11 03:35:41;;;;;;;8.90;8.20;;;15.80;99.90;;;;;;6227213;28;20448;-63
2021/09/11 03:38:44;;;;;;;8.43;7.73;;;15.80;99.90;;;;;;6226842;28;20459;-64
2021/09/11 03:41:48;;;;;;;8.60;7.87;;;15.80;99.90;;;;;;6226917;28;20468;-64
2021/09/11 03:44:51;;;;;;;9.33;7.53;;;15.80;99.90;;;;;;6227708;28;20475;-64
2021/09/11 03:47:55;;;;;;;8.90;8.10;;;15.70;99.90;;;;;;6226335;28;20789;-64
2021/09/11 03:50:58;;;;;;;9.23;8.33;;;15.70;99.90;;;;;;6226837;28;20956;-64
2021/09/11 03:54:01;;;;;;;8.50;7.80;;;15.60;99.90;;;;;;6226893;28;20467;-64
2021/09/11 03:57:06;;;;;;;9.77;8.97;;;15.60;99.90;;;;;;6226158;28;20813;-64
2021/09/11 04:00:11;;;;;;;9.10;8.07;;;15.60;99.90;;;;;;6227074;28;20480;-64
2021/09/11 04:03:14;;;;;;;8.33;7.63;;;15.60;99.90;;;;;;6226520;28;20468;-61
2021/09/11 04:06:17;;;;;;;9.10;8.37;;;15.60;99.90;;;;;;6222268;28;20475;-61
2021/09/11 04:09:20;;;;;;;8.37;7.57;;;15.50;99.90;;;;;;6226525;28;20487;-61
2021/09/11 04:12:25;;;;;;;9.33;8.53;;;15.50;99.90;;;;;;6225990;28;20479;-62
2021/09/11 04:15:28;;;;;;;9.63;8.73;;;15.50;99.90;;;;;;6226545;28;20480;-61
2021/09/11 04:18:31;;;;;;;10.13;8.97;;;15.50;99.90;;;;;;6226212;28;20488;-60
2021/09/11 04:21:35;;;;;;;8.93;8.23;;;15.50;99.90;;;;;;6226596;28;20560;-62
2021/09/11 04:24:38;;;;;;;8.67;7.97;;;15.50;99.90;;;;;;6226261;28;20472;-61
2021/09/11 04:27:42;;;;;;;8.87;8.27;;;15.40;99.90;;;;;;6226344;28;20827;-61
2021/09/11 04:30:45;;;;;;;8.03;7.37;;;15.50;99.90;;;;;;6226353;28;20967;-62
2021/09/11 04:33:49;;;;;;;9.17;8.47;;;15.40;99.90;;;;;;6226678;28;20546;-61
2021/09/11 04:36:52;;;;;;;9.53;7.90;;;15.40;99.90;;;;;;6226427;28;20472;-62
2021/09/11 04:39:55;;;;;;;8.87;8.07;;;15.40;99.90;;;;;;6226167;28;20472;-63
2021/09/11 04:43:00;;;;;;;9.27;8.47;;;15.40;99.90;;;;;;6225275;28;20537;-62
2021/09/11 04:46:03;;;;;;;9.27;8.40;;;15.40;99.90;;;;;;6226075;28;20472;-62
2021/09/11 04:49:06;;;;;;;8.80;8.07;;;15.40;99.90;;;;;;6225749;28;20472;-62
2021/09/11 04:52:09;;;;;;;9.10;8.33;;;15.40;99.90;;;;;;6225959;28;20472;-61
2021/09/11 04:55:13;;;;;;;8.07;7.23;;;15.40;99.90;;;;;;6228196;28;20467;-61
2021/09/11 04:58:17;;;;;;;8.70;8.00;;;15.40;99.90;;;;;;6231141;28;20472;-62
2021/09/11 05:01:20;;;;;;;8.60;7.90;;;15.40;99.90;;;;;;6231044;28;20476;-62
2021/09/11 05:04:24;;;;;;;8.87;8.07;;;15.40;99.90;;;;;;6230603;28;20973;-61
2021/09/11 05:07:28;;;;;;;10.00;8.17;;;15.40;99.90;;;;;;6231242;28;20602;-62
2021/09/11 05:10:31;;;;;;;9.23;8.33;;;15.40;99.90;;;;;;6221414;28;20484;-62
2021/09/11 05:13:35;;;;;;;10.20;9.30;;;15.40;99.90;;;;;;6230681;28;20476;-61
2021/09/11 05:16:39;;;;;;;13.63;9.67;;;15.40;99.90;;;;;;6230462;28;20498;-62
2021/09/11 05:19:42;;;;;;;10.20;8.90;;;15.40;99.90;;;;;;6230419;28;20804;-62
2021/09/11 05:22:45;;;;;;;9.83;9.03;;;15.50;99.90;;;;;;6230394;28;20487;-61
2021/09/11 05:25:49;;;;;;;9.60;8.70;;;15.50;99.90;;;;;;6230974;28;20468;-62
2021/09/11 05:28:54;;;;;;;9.00;8.30;;;15.60;99.90;;;;;;6230079;28;20482;-62
2021/09/11 05:31:57;;;;;;;9.60;8.80;;;15.60;99.90;;;;;;6230329;28;20479;-62
2021/09/11 05:35:00;;;;;;;10.83;8.43;;;15.60;99.90;;;;;;6230091;28;20483;-61
2021/09/11 05:38:03;;;;;;;10.33;9.33;;;15.60;99.90;;;;;;6229839;28;20979;-61
2021/09/11 05:41:06;;;;;;;13.57;9.30;;;15.70;99.90;;;;;;6230360;28;20483;-61
2021/09/11 05:44:12;;;;;;;9.90;9.00;;;15.70;99.90;;;;;;6230033;28;20483;-62
2021/09/11 05:47:15;;;;;;;9.23;8.53;;;15.80;99.90;;;;;;6230149;28;20486;-62
2021/09/11 05:50:18;;;;;;;11.03;10.10;;;15.80;99.90;;;;;;6229539;28;20475;-62
2021/09/11 05:53:21;;;;;;;10.47;9.37;;;15.90;99.90;;;;;;6229973;28;20468;-62
2021/09/11 05:56:24;;;;;;;9.50;8.60;;;16.00;99.90;;;;;;6229714;28;20480;-62
2021/09/11 05:59:29;;;;;;;10.40;9.33;;;16.10;99.90;;;;;;6229224;28;20490;-62
2021/09/11 06:02:32;;;;;;;10.10;9.20;;;16.20;99.90;;;;;;6230446;28;20456;-61
2021/09/11 06:05:35;;;;;;;10.23;9.10;;;16.30;99.90;;;;;;6228436;28;20518;-61
2021/09/11 06:08:39;;;;;;;10.53;9.50;;;16.40;99.90;;;;;;6229500;28;20475;-61
2021/09/11 06:11:42;;;;;;;12.07;10.87;;;16.50;99.90;;;;;;6224568;28;20483;-61
2021/09/11 06:14:48;;;;;;;10.40;9.40;;;16.60;99.90;;;;;;6228535;28;20924;-61
2021/09/11 06:17:51;;;;;;;10.83;9.63;;;16.80;99.90;;;;;;6229388;28;20460;-61
2021/09/11 06:20:54;;;;;;;9.90;9.00;;;17.00;99.90;;;;;;6229134;28;20486;-61
2021/09/11 06:23:57;;;;;;;10.00;9.00;;;17.30;99.50;;;;;;6229197;28;20464;-61
2021/09/11 06:27:00;;;;;;;10.27;9.20;;;17.70;99.10;;;;;;6229048;28;20487;-61
2021/09/11 06:30:06;;;;;;;10.60;8.60;;;18.50;98.80;;;;;;6229293;28;20228;-61
2021/09/11 06:33:09;;;;;;;11.07;9.23;;;20.20;96.20;;;;;;6228938;28;20221;-62
2021/09/11 06:36:13;;;;;;;10.23;9.23;;;22.00;92.70;;;;;;6228397;28;20224;-61
2021/09/11 06:39:17;;;;;;;10.37;9.00;;;23.80;87.60;;;;;;6228273;28;20596;-62
2021/09/11 06:42:20;;;;;;;13.53;9.27;;;25.20;79.00;;;;;;6228832;28;20232;-62
2021/09/11 06:45:24;;;;;;;9.53;8.53;;;26.30;71.30;;;;;;6227824;28;20228;-63
2021/09/11 06:48:28;;;;;;;11.23;8.80;;;27.60;65.30;;;;;;6228372;28;20228;-62
2021/09/11 06:51:32;;;;;;;9.70;8.80;;;28.80;59.90;;;;;;6228188;28;20247;-64
2021/09/11 06:54:35;;;;;;;10.20;9.10;;;29.90;56.10;;;;;;6228498;28;20239;-64
2021/09/11 06:57:38;;;;;;;11.13;10.23;;;31.00;52.20;;;;;;6228856;28;20228;-64
2021/09/11 07:00:42;;;;;;;15.17;9.50;;;31.90;49.10;;;;;;6228084;28;20239;-64
2021/09/11 07:03:46;;;;;;;9.75;8.95;;;32.90;46.40;;;;;;6228490;28;20233;-65
2021/09/11 07:06:50;;;;;;;9.55;8.65;;;33.80;44.00;;;;;;6228007;28;20232;-64
2021/09/11 07:09:53;;;;;;;10.48;9.15;;;34.80;41.90;;;;;;6227978;28;20256;-64
2021/09/11 07:12:56;;;;;;;9.02;8.23;;;35.70;39.60;;;;;;6228970;28;20236;-64
2021/09/11 07:16:01;;;;;;;9.20;8.30;;;36.40;37.40;;;;;;6228044;28;20557;-64
2021/09/11 07:19:04;;;;;;;9.93;8.98;;;36.80;36.40;;;;;;6217959;28;20688;-63
2021/09/11 07:22:07;;;;;;;9.48;8.63;;;37.50;35.40;;;;;;6227877;28;20668;-64
2021/09/11 07:25:11;;;;;;;9.18;8.48;;;38.30;33.80;;;;;;6228237;28;20703;-64
2021/09/11 07:28:14;;;;;;;8.80;8.07;;;39.00;32.80;;;;;;6228752;28;20224;-65
2021/09/11 07:31:19;;;;;;;9.00;8.10;;;39.70;31.70;;;;;;6227887;28;20236;-64
2021/09/11 07:34:22;;;;;;;11.00;9.18;;;40.30;30.60;;;;;;6227317;28;20224;-64
2021/09/11 07:37:25;;;;;;;8.98;8.18;;;41.20;29.50;;;;;;6227493;28;20648;-64
2021/09/11 07:40:29;;;;;;;11.88;8.88;;;41.80;28.40;;;;;;6227693;28;20232;-64
2021/09/11 07:43:32;;;;;;;10.57;9.13;;;42.30;27.40;;;;;;6227690;28;20236;-64
2021/09/11 07:46:37;;;;;;;14.27;8.77;;;42.80;27.00;;;;;;6227022;28;20232;-64
2021/09/11 07:49:40;;;;;;;12.82;9.55;;;43.00;26.50;;;;;;6227653;28;20246;-64
2021/09/11 07:52:44;;;;;;;9.43;8.50;;;43.60;26.20;;;;;;6227810;28;20232;-64
2021/09/11 07:55:47;;;;;;;9.70;8.90;;;44.00;25.60;;;;;;6226763;28;20245;-65
2021/09/11 07:58:50;;;;;;;10.60;9.60;;;44.40;25.50;;;;;;6227216;28;20234;-65
2021/09/11 08:01:55;;;;;;;10.32;9.38;;;44.40;25.50;;;;;;6226679;28;20305;-64
2021/09/11 08:05:00;;;;;;;10.20;9.20;;;44.80;25.30;;;;;;6226532;28;20241;-65
2021/09/11 08:08:03;;;;;;;9.48;8.77;;;45.30;24.90;;;;;;6225970;28;20235;-65
2021/09/11 08:11:07;;;;;;;8.70;8.00;;;45.30;24.60;;;;;;6225389;28;20255;-64
2021/09/11 08:14:10;;;;;;;10.10;8.95;;;45.80;24.60;;;;;;6225548;28;20229;-64
2021/09/11 08:17:15;;;;;;;10.07;9.00;;;45.80;23.80;;;;;;6225742;28;20307;-64
2021/09/11 08:20:18;;;;;;;9.93;8.77;;;46.40;23.30;;;;;;6224535;28;20251;-64
2021/09/11 08:23:21;;;;;;;8.52;7.82;;;47.20;22.80;;;;;;6215851;28;20232;-65
2021/09/11 08:26:26;;;;;;;8.02;7.40;;;47.90;22.50;;;;;;6224340;28;20353;-65
2021/09/11 08:29:29;;;;;;;8.43;7.63;;;48.60;22.10;;;;;;6224420;28;20229;-65
2021/09/11 08:32:35;;;;;;;8.65;7.85;;;49.20;21.60;;;;;;6224726;28;20225;-65
2021/09/11 08:35:38;;;;;;;8.93;8.02;;;49.50;21.20;;;;;;6225710;28;20187;-65
2021/09/11 08:38:41;;;;;;;8.10;7.38;;;49.60;21.00;;;;;;6226069;28;20212;-65
2021/09/11 08:41:46;;;;;;;8.07;7.43;;;50.40;20.70;;;;;;6225809;28;20674;-65
2021/09/11 08:44:49;;;;;;;8.07;7.30;;;51.00;20.30;;;;;;6226023;28;20618;-65
2021/09/11 08:47:54;;;;;;;10.07;7.50;;;51.40;19.80;;;;;;6225514;28;20228;-66
2021/09/11 08:50:57;;;;;;;8.07;7.38;;;51.30;19.70;;;;;;6225999;28;20239;-66
2021/09/11 08:54:05;;;;;;;8.05;7.45;;;51.40;19.60;;;;;;6225598;28;20221;-66
2021/09/11 08:57:22;;;;;;;7.95;6.95;;;52.10;19.40;;;;;;6225665;28;20241;-66
2021/09/11 09:00:41;;;;;;;6.70;5.80;;;52.60;19.00;;;;;;6225675;28;20242;-66
2021/09/11 09:03:46;;;;;;;6.40;5.90;;;52.60;18.90;;;;;;6225565;28;20235;-66
2021/09/11 09:06:58;;;;;;;7.35;6.93;;;53.10;18.70;;;;;;6225169;28;20717;-66
2021/09/11 09:10:03;;;;;;;6.85;6.25;;;53.80;18.50;;;;;;6225108;28;20235;-66
2021/09/11 09:13:07;;;;;;;6.72;6.32;;;54.20;18.20;;;;;;6225134;28;20239;-66
2021/09/11 09:16:13;;;;;;;6.85;6.15;;;53.70;18.10;;;;;;6225588;28;20236;-66
2021/09/11 09:19:20;;;;;;;7.65;7.00;;;54.00;18.30;;;;;;6225845;28;20263;-66
2021/09/11 09:22:23;;;;;;;7.05;6.55;;;53.40;18.30;;;;;;6222562;28;20983;-66
2021/09/11 09:25:29;;;;;;;6.60;6.10;;;54.00;18.10;;;;;;6205388;28;20255;-67
2021/09/11 09:28:32;;;;;;;7.88;7.18;;;55.20;17.80;;;;;;6211733;28;20237;-66
2021/09/11 09:31:36;;;;;;;7.00;6.40;;;55.70;17.40;;;;;;6215958;28;20691;-66
2021/09/11 09:34:43;;;;;;;7.00;6.50;;;56.00;17.20;;;;;;6213665;28;20224;-66
2021/09/11 09:38:00;;;;;;;6.90;6.22;;;55.30;17.10;;;;;;6205632;28;20673;-66
2021/09/11 09:41:11;;;;;;;7.20;6.60;;;55.40;17.10;;;;;;6202253;28;20689;-66
2021/09/11 09:44:16;;;;;;;6.70;6.10;;;55.90;17.30;;;;;;6204490;28;20676;-66
2021/09/11 09:47:22;;;;;;;6.97;6.28;;;56.90;16.80;;;;;;6205562;28;20247;-65
2021/09/11 09:50:30;;;;;;;7.18;6.57;;;56.00;16.70;;;;;;6207267;28;20232;-65
2021/09/11 09:53:35;;;;;;;6.30;5.70;;;53.80;17.50;;;;;;6229665;28;20216;-65
2021/09/11 09:56:38;;;;;;;6.10;5.68;;;54.40;17.50;;;;;;6229651;28;20200;-66
2021/09/11 09:59:41;;;;;;;7.03;5.95;;;53.80;17.40;;;;;;6229333;28;20200;-65
2021/09/11 10:02:44;;;;;;;5.85;5.35;;;53.10;17.70;;;;;;6229042;28;20231;-65
2021/09/11 10:05:54;;;;;;;6.45;5.95;;;52.10;18.10;;;;;;6228903;28;20242;-65
2021/09/11 10:09:04;;;;;;;5.93;5.63;;;50.70;19.00;;;;;;6228506;28;20221;-65
2021/09/11 10:12:29;;;;;;;9.30;6.15;;;48.30;19.70;;;;;;6228738;28;20239;-65
2021/09/11 10:15:34;;;;;;;7.65;6.00;;;45.90;21.40;;;;;;6228836;28;20234;-66
2021/09/11 10:18:45;;;;;;;5.65;5.15;;;44.10;22.40;;;;;;6228429;28;20574;-66
2021/09/11 10:21:50;;;;;;;6.25;5.78;;;42.60;22.90;;;;;;6228298;28;20740;-65
2021/09/11 10:25:04;;;;;;;7.97;5.47;;;41.40;23.60;;;;;;6228110;28;20550;-65
2021/09/11 10:28:15;;;;;;;5.93;5.25;;;39.70;24.70;;;;;;6224018;28;20236;-66
2021/09/11 10:31:18;;;;;;;6.55;5.95;;;38.70;25.80;;;;;;6228361;28;20625;-66
2021/09/11 10:34:46;;;;;;;6.13;5.55;;;37.10;27.00;;;;;;6228470;28;20307;-65
2021/09/11 10:37:53;;;;;;;6.13;5.47;;;36.10;27.80;;;;;;6228228;28;20227;-65
2021/09/11 10:41:07;;;;;;;5.75;5.35;;;35.40;28.70;;;;;;6228565;28;20228;-66
2021/09/11 10:44:13;;;;;;;6.10;5.57;;;34.40;29.40;;;;;;6228268;28;20243;-65
2021/09/11 10:47:45;;;;;;;9.13;6.22;;;33.70;30.40;;;;;;6228902;28;20220;-66
2021/09/11 10:50:50;;;;;;;7.28;5.68;;;32.60;32.30;;;;;;6230408;28;20712;-65
2021/09/11 10:54:09;;;;;;;6.40;5.88;;;31.90;34.20;;;;;;6229134;28;20228;-65
2021/09/11 10:57:15;;;;;;;7.28;6.20;;;32.00;34.10;;;;;;6230213;28;20960;-65
2021/09/11 11:00:21;;;;;;;6.40;5.90;;;32.30;34.30;;;;;;6230643;28;20251;-66
2021/09/11 11:03:25;;;;;;;6.47;5.97;;;32.40;32.90;;;;;;6229717;28;20243;-66
2021/09/11 11:06:29;;;;;;;6.20;5.70;;;32.30;33.30;;;;;;6232767;28;20243;-65
2021/09/11 11:09:41;;;;;;;7.35;6.63;;;31.90;33.60;;;;;;6228553;28;20224;-63
2021/09/11 11:12:46;;;;;;;6.13;5.68;;;31.80;34.60;;;;;;6227340;28;20306;-64
2021/09/11 11:15:54;;;;;;;6.78;6.18;;;31.50;34.40;;;;;;6228053;28;20556;-64
2021/09/11 11:18:58;;;;;;;6.03;5.53;;;31.30;35.00;;;;;;6227848;28;20236;-64
2021/09/11 11:22:04;;;;;;;7.18;6.47;;;30.90;35.20;;;;;;6227868;28;20588;-64
2021/09/11 11:25:12;;;;;;;6.25;5.70;;;30.50;35.40;;;;;;6228218;28;20236;-65
2021/09/11 11:28:16;;;;;;;7.38;5.72;;;30.30;36.00;;;;;;6227983;28;20232;-65
2021/09/11 11:31:19;;;;;;;6.95;6.15;;;30.20;36.30;;;;;;6227955;28;20244;-65
2021/09/11 11:34:22;;;;;;;6.65;6.15;;;30.20;36.80;;;;;;6227482;28;20570;-65
2021/09/11 11:37:26;;;;;;;9.35;5.75;;;30.20;36.10;;;;;;6227032;28;20235;-65
2021/09/11 11:40:30;;;;;;;6.90;6.30;;;30.40;35.70;;;;;;6227384;28;20240;-65
2021/09/11 11:43:34;;;;;;;7.13;6.57;;;30.70;36.20;;;;;;6226637;28;20224;-67
2021/09/11 11:46:38;;;;;;;6.25;5.65;;;30.80;35.30;;;;;;6226650;28;20855;-66
2021/09/11 11:49:42;;;;;;;7.38;6.65;;;30.70;35.60;;;;;;6226786;28;20235;-65
2021/09/11 11:52:46;;;;;;;6.82;6.10;;;30.80;35.80;;;;;;6226537;28;20236;-65
2021/09/11 11:55:53;;;;;;;6.07;5.57;;;30.90;35.90;;;;;;6226417;28;20319;-66
2021/09/11 11:58:59;;;;;;;6.25;5.75;;;31.20;36.10;;;;;;6226585;28;20672;-65
2021/09/11 12:02:18;;;;;;;6.47;5.97;;;31.50;35.10;;;;;;6225942;28;20237;-66
2021/09/11 12:05:26;;;;;;;7.68;6.97;;;31.60;35.00;;;;;;6227236;28;20233;-63
2021/09/11 12:08:32;;;;;;;5.90;5.50;;;31.70;34.50;;;;;;6225859;28;20607;-67
2021/09/11 12:11:37;;;;;;;6.47;5.97;;;31.70;34.50;;;;;;6225900;28;20322;-66
2021/09/11 12:14:40;;;;;;;5.88;5.47;;;31.80;39.80;;;;;;6226110;28;20200;-66
2021/09/11 12:18:01;;;;;;;9.90;6.05;;;31.90;36.00;;;;;;6226454;28;20573;-66
2021/09/11 12:21:16;;;;;;;8.43;6.03;;;31.90;34.20;;;;;;6225935;28;20659;-65
2021/09/11 12:24:21;;;;;;;6.03;5.53;;;31.80;34.40;;;;;;6226104;28;20236;-65
2021/09/11 12:27:29;;;;;;;5.97;5.40;;;31.80;35.20;;;;;;6220238;28;20727;-65
2021/09/11 12:30:51;;;;;;;6.13;5.70;;;31.80;35.80;;;;;;6225756;28;20262;-64
2021/09/11 12:33:58;;;;;;;6.20;5.80;;;31.80;34.40;;;;;;6225547;28;20547;-64
2021/09/11 12:37:03;;;;;;;6.53;6.03;;;31.90;34.30;;;;;;6217379;28;20240;-64
2021/09/11 12:40:08;;;;;;;6.63;6.13;;;31.70;35.10;;;;;;6225500;28;20228;-65
2021/09/11 12:43:12;;;;;;;7.10;6.47;;;31.40;35.40;;;;;;6225415;28;20240;-65
2021/09/11 12:46:34;;;;;;;6.80;6.20;;;31.40;35.40;;;;;;6225259;28;20543;-64
2021/09/11 12:49:39;;;;;;;7.65;5.88;;;31.40;35.50;;;;;;6226051;28;20233;-64
2021/09/11 12:52:42;;;;;;;6.55;5.97;;;31.00;36.20;;;;;;6225579;28;20240;-64
2021/09/11 12:55:45;;;;;;;7.30;6.70;;;30.70;36.80;;;;;;6225616;28;20656;-65
2021/09/11 12:58:52;;;;;;;7.55;6.85;;;30.90;36.90;;;;;;6225390;28;20673;-65
2021/09/11 13:01:55;;;;;;;7.03;6.38;;;30.70;37.40;;;;;;6222296;28;20299;-64
2021/09/11 13:04:58;;;;;;;6.93;6.38;;;30.50;37.60;;;;;;6224413;28;20235;-63
2021/09/11 13:08:02;;;;;;;7.07;6.47;;;30.40;37.80;;;;;;6221994;28;20235;-63
2021/09/11 13:11:05;;;;;;;6.47;5.97;;;30.50;38.00;;;;;;6224885;28;20239;-63
2021/09/11 13:14:10;;;;;;;7.53;6.93;;;30.20;38.40;;;;;;6225023;28;20243;-64
2021/09/11 13:17:13;;;;;;;8.10;6.95;;;30.10;38.50;;;;;;6228946;28;20239;-63
2021/09/11 13:20:16;;;;;;;6.60;6.10;;;29.90;38.60;;;;;;6226463;28;20233;-64
2021/09/11 13:23:20;;;;;;;6.32;5.72;;;29.90;38.60;;;;;;6210628;28;20225;-64
2021/09/11 13:26:25;;;;;;;8.27;7.47;;;29.90;38.80;;;;;;6205039;28;20220;-64
2021/09/11 13:29:30;;;;;;;7.23;6.53;;;30.00;38.60;;;;;;6205361;28;20228;-62
2021/09/11 13:32:33;;;;;;;7.47;6.80;;;29.80;38.60;;;;;;6203213;28;20664;-63
2021/09/11 13:35:37;;;;;;;7.22;6.63;;;29.90;38.80;;;;;;6218839;28;20208;-64
2021/09/11 13:38:40;;;;;;;7.32;6.40;;;29.90;38.80;;;;;;6222457;28;20232;-64
2021/09/11 13:41:43;;;;;;;6.60;6.10;;;29.90;38.50;;;;;;6226687;28;20323;-64
2021/09/11 13:44:49;;;;;;;7.40;6.77;;;29.80;38.80;;;;;;6215836;28;20200;-64
2021/09/11 13:47:52;;;;;;;7.67;7.00;;;29.70;39.10;;;;;;6225129;28;20256;-64
2021/09/11 13:50:55;;;;;;;7.60;6.90;;;29.70;39.60;;;;;;6225291;28;20236;-65
2021/09/11 13:53:58;;;;;;;6.80;6.20;;;29.60;39.30;;;;;;6226135;28;20236;-65
2021/09/11 13:57:03;;;;;;;6.40;5.83;;;29.50;39.70;;;;;;6226621;28;20243;-65
2021/09/11 14:00:09;;;;;;;7.17;6.57;;;29.10;40.00;;;;;;6226148;28;20583;-64
2021/09/11 14:03:12;;;;;;;7.30;6.63;;;29.10;40.00;;;;;;6226408;28;20236;-62
2021/09/11 14:06:15;;;;;;;6.97;6.27;;;29.20;39.90;;;;;;6227468;28;20236;-64
2021/09/11 14:09:18;;;;;;;8.00;7.30;;;29.00;40.10;;;;;;6227849;28;20224;-66
2021/09/11 14:12:22;;;;;;;7.03;6.37;;;28.60;40.50;;;;;;6226643;28;20240;-62
2021/09/11 14:15:26;;;;;;;6.80;6.20;;;28.60;41.00;;;;;;6224024;28;20243;-66
2021/09/11 14:18:30;;;;;;;6.53;6.03;;;28.60;41.30;;;;;;6226294;28;20236;-62
2021/09/11 14:21:33;;;;;;;7.50;6.80;;;28.60;41.50;;;;;;6226258;28;20228;-64
2021/09/11 14:24:36;;;;;;;7.60;6.90;;;28.40;41.90;;;;;;6225778;28;20243;-62
2021/09/11 14:27:40;;;;;;;8.23;6.87;;;28.40;41.80;;;;;;6225738;28;20675;-62
2021/09/11 14:30:45;;;;;;;7.20;6.50;;;28.30;41.70;;;;;;6225327;28;20232;-63
2021/09/11 14:33:48;;;;;;;7.70;7.10;;;28.20;41.80;;;;;;6225978;28;20228;-63
2021/09/11 14:36:52;;;;;;;7.03;6.43;;;28.10;42.30;;;;;;6226723;28;20232;-63
2021/09/11 14:39:55;;;;;;;6.97;6.47;;;27.80;42.50;;;;;;6226324;28;20239;-63
2021/09/11 14:42:58;;;;;;;8.40;6.90;;;27.80;42.60;;;;;;6226714;28;20235;-63
2021/09/11 14:46:03;;;;;;;6.30;5.80;;;27.90;42.80;;;;;;6227458;28;20307;-64
2021/09/11 14:49:08;;;;;;;7.33;6.73;;;28.00;42.90;;;;;;6228160;28;20247;-62
2021/09/11 14:52:11;;;;;;;6.60;6.10;;;28.00;42.80;;;;;;6228190;28;20232;-64
2021/09/11 14:55:14;;;;;;;9.20;6.87;;;28.00;43.20;;;;;;6228270;28;20232;-63
2021/09/11 14:58:17;;;;;;;8.03;7.33;;;28.10;42.80;;;;;;6226941;28;20232;-63
2021/09/11 15:01:22;;;;;;;9.67;6.20;;;28.20;42.70;;;;;;6228403;28;20248;-63
2021/09/11 15:04:25;;;;;;;7.57;6.97;;;28.00;42.60;;;;;;6225670;28;20452;-63
2021/09/11 15:07:29;;;;;;;7.20;6.70;;;27.90;42.80;;;;;;6205957;28;20240;-63
2021/09/11 15:10:32;;;;;;;7.17;6.50;;;27.80;42.80;;;;;;6203678;28;20229;-62
2021/09/11 15:13:35;;;;;;;8.70;6.77;;;27.70;42.70;;;;;;6223990;28;20240;-62
2021/09/11 15:16:40;;;;;;;7.70;7.00;;;27.50;43.30;;;;;;6205543;28;20677;-63
2021/09/11 15:19:43;;;;;;;7.77;7.17;;;27.50;43.20;;;;;;6208699;28;20240;-63
2021/09/11 15:22:46;;;;;;;6.83;6.07;;;27.60;43.30;;;;;;6208709;28;20236;-63
2021/09/11 15:25:51;;;;;;;7.20;6.60;;;27.50;43.00;;;;;;6227340;28;20232;-63
2021/09/11 15:28:54;;;;;;;6.63;6.10;;;27.50;42.80;;;;;;6221628;28;20216;-65
2021/09/11 15:31:59;;;;;;;7.73;6.27;;;27.40;43.00;;;;;;6224218;28;20243;-64
2021/09/11 15:35:02;;;;;;;7.60;7.00;;;27.30;43.00;;;;;;6225315;28;20494;-64
2021/09/11 15:38:05;;;;;;;7.33;6.63;;;27.40;43.00;;;;;;6225020;28;20224;-65
2021/09/11 15:41:08;;;;;;;6.57;6.00;;;27.40;42.60;;;;;;6225146;28;20251;-64
2021/09/11 15:44:11;;;;;;;6.33;5.83;;;27.30;43.00;;;;;;6224820;28;20243;-64
2021/09/11 15:47:16;;;;;;;7.63;6.97;;;27.40;43.00;;;;;;6224924;28;20225;-62
2021/09/11 15:50:20;;;;;;;7.90;7.10;;;27.40;43.30;;;;;;6216273;28;20232;-62
2021/09/11 15:53:23;;;;;;;7.60;7.00;;;27.50;43.10;;;;;;6225373;28;20243;-62
2021/09/11 15:56:26;;;;;;;6.77;5.90;;;27.60;43.30;;;;;;6225053;28;20298;-62
2021/09/11 15:59:29;;;;;;;6.23;5.73;;;27.70;42.90;;;;;;6225246;28;20251;-63